Time;durP1;ratioP1;P1;durP2;ratioP2;P2;SDS_P1;SDS_P2;PMS_P1;PMS_P2;Temp;Humidity;BMP_temperature;BMP_pressure;BME280_temperature;BME280_humidity;BME280_pressure;Samples;Min_cycle;Max_cycle;Signal;HPM_P1;HPM_P2
2023/10/31 00:02:00;;;;;;;6.20;5.80;;;11.90;77.80;;;;;;6240728;28;20254;-84
2023/10/31 00:05:03;;;;;;;7.10;6.43;;;11.90;77.70;;;;;;6238833;28;20876;-83
2023/10/31 00:08:07;;;;;;;7.33;6.73;;;11.90;77.70;;;;;;6236921;28;20369;-83
2023/10/31 00:11:10;;;;;;;6.37;5.97;;;11.90;77.80;;;;;;6239491;28;20288;-82
2023/10/31 00:14:14;;;;;;;8.50;6.43;;;11.90;77.80;;;;;;6247283;28;20257;-84
2023/10/31 00:17:33;;;;;;;5.83;5.53;;;11.90;77.80;;;;;;6232796;28;20256;-86
2023/10/31 00:20:36;;;;;;;7.10;6.60;;;11.90;77.90;;;;;;6249174;28;20919;-85
2023/10/31 00:23:44;;;;;;;7.23;6.73;;;11.90;78.10;;;;;;6245210;28;20242;-84
2023/10/31 00:26:48;;;;;;;6.47;5.87;;;11.90;78.20;;;;;;6236524;28;20268;-84
2023/10/31 00:29:54;;;;;;;6.00;5.60;;;11.90;78.20;;;;;;6243156;28;20713;-84
2023/10/31 00:32:57;;;;;;;7.10;6.40;;;11.90;78.30;;;;;;6256029;28;20249;-82
2023/10/31 00:36:01;;;;;;;6.50;6.00;;;11.90;78.50;;;;;;6254208;28;20235;-85
2023/10/31 00:39:04;;;;;;;7.07;6.60;;;11.90;78.50;;;;;;6254455;28;21004;-83
2023/10/31 00:42:10;;;;;;;6.50;6.17;;;11.80;79.00;;;;;;6237119;28;20399;-83
2023/10/31 00:45:15;;;;;;;5.87;5.67;;;11.70;79.00;;;;;;6239302;28;20255;-83
2023/10/31 00:48:19;;;;;;;6.93;6.50;;;11.70;79.10;;;;;;6231529;28;20324;-84
2023/10/31 00:51:23;;;;;;;6.27;5.97;;;11.70;79.20;;;;;;6214661;28;20239;-83
2023/10/31 00:54:26;;;;;;;7.47;6.87;;;11.70;79.40;;;;;;6219813;28;20261;-80
2023/10/31 00:57:29;;;;;;;7.77;7.07;;;11.70;79.50;;;;;;6232088;28;20288;-83
2023/10/31 01:00:37;;;;;;;7.33;6.70;;;11.70;79.60;;;;;;6238628;28;20288;-84
2023/10/31 01:03:40;;;;;;;7.80;7.07;;;11.70;79.80;;;;;;6238961;28;20239;-85
2023/10/31 01:06:44;;;;;;;7.97;7.37;;;11.70;79.80;;;;;;6253618;28;20320;-85
2023/10/31 01:09:47;;;;;;;7.50;7.00;;;11.60;80.00;;;;;;6232542;28;20243;-84
2023/10/31 01:12:51;;;;;;;7.57;6.87;;;11.60;80.10;;;;;;6239828;28;20310;-85
2023/10/31 01:15:55;;;;;;;7.40;6.87;;;11.60;80.10;;;;;;6242916;28;20744;-84
2023/10/31 01:18:58;;;;;;;7.10;6.50;;;11.60;80.20;;;;;;6238335;28;20230;-87
2023/10/31 01:22:02;;;;;;;7.50;6.93;;;11.60;80.20;;;;;;6238999;28;20230;-82
2023/10/31 01:25:06;;;;;;;7.13;6.53;;;11.60;80.30;;;;;;6237941;28;20234;-82
2023/10/31 01:28:09;;;;;;;7.73;7.03;;;11.60;80.40;;;;;;6231736;28;20319;-83
2023/10/31 01:31:14;;;;;;;6.23;5.87;;;11.60;80.50;;;;;;6236632;28;20238;-82
2023/10/31 01:34:17;;;;;;;7.43;6.93;;;11.50;80.60;;;;;;6237356;28;20833;-82
2023/10/31 01:37:21;;;;;;;6.07;5.77;;;11.50;80.70;;;;;;6233792;28;20736;-83
2023/10/31 01:40:24;;;;;;;7.33;6.80;;;11.50;80.80;;;;;;6236852;28;20316;-84
2023/10/31 01:43:31;;;;;;;6.27;5.87;;;11.50;80.90;;;;;;6246339;28;20323;-83
2023/10/31 01:46:36;;;;;;;7.13;6.67;;;11.50;81.00;;;;;;6230226;28;20246;-85
2023/10/31 01:49:40;;;;;;;8.43;7.67;;;11.50;81.10;;;;;;6232913;28;20810;-85
2023/10/31 01:52:44;;;;;;;6.60;6.13;;;11.50;81.10;;;;;;6237461;28;20245;-83
2023/10/31 01:55:48;;;;;;;8.00;7.50;;;11.50;81.20;;;;;;6236813;28;20250;-82
2023/10/31 01:58:51;;;;;;;7.40;6.87;;;11.50;81.30;;;;;;6232275;28;20231;-84
2023/10/31 02:01:57;;;;;;;8.83;8.10;;;11.50;81.50;;;;;;6236537;28;20235;-83
2023/10/31 02:05:01;;;;;;;8.37;7.57;;;11.50;81.80;;;;;;6231254;28;20246;-84
2023/10/31 02:08:08;;;;;;;8.80;8.03;;;11.50;81.80;;;;;;6233985;28;20232;-82
2023/10/31 02:11:11;;;;;;;10.00;9.13;;;11.50;81.90;;;;;;6233215;28;20237;-85
2023/10/31 02:14:14;;;;;;;8.60;7.90;;;11.50;82.10;;;;;;6245956;28;20239;-84
2023/10/31 02:17:19;;;;;;;8.87;8.17;;;11.50;82.00;;;;;;6237026;28;20765;-84
2023/10/31 02:20:22;;;;;;;8.60;7.90;;;11.50;82.40;;;;;;6236972;28;20238;-85
2023/10/31 02:23:27;;;;;;;10.37;7.87;;;11.40;82.40;;;;;;6235665;28;20322;-84
2023/10/31 02:26:54;;;;;;;7.80;7.17;;;11.40;82.40;;;;;;6222347;28;20623;-86
2023/10/31 02:29:58;;;;;;;8.77;7.63;;;11.40;82.40;;;;;;6221391;28;20740;-83
2023/10/31 02:33:02;;;;;;;8.60;7.97;;;11.40;82.50;;;;;;6214862;28;20742;-83
2023/10/31 02:36:05;;;;;;;10.30;9.40;;;11.40;82.60;;;;;;6243048;28;20730;-85
2023/10/31 02:39:10;;;;;;;8.20;7.50;;;11.40;82.80;;;;;;6247984;28;20276;-84
2023/10/31 02:42:14;;;;;;;9.23;8.43;;;11.30;82.90;;;;;;6252830;28;20233;-84
2023/10/31 02:45:17;;;;;;;8.13;7.53;;;11.30;82.90;;;;;;6244548;28;20844;-84
2023/10/31 02:48:20;;;;;;;9.57;8.47;;;11.30;82.90;;;;;;6242061;28;20275;-85
2023/10/31 02:51:24;;;;;;;8.47;7.67;;;11.30;83.30;;;;;;6250122;28;20280;-85
2023/10/31 02:54:28;;;;;;;10.97;9.00;;;11.30;83.20;;;;;;6245445;28;20239;-84
2023/10/31 02:57:32;;;;;;;11.40;9.53;;;11.30;83.60;;;;;;6243192;28;20312;-84
2023/10/31 03:00:35;;;;;;;9.00;8.30;;;11.20;83.90;;;;;;6242174;28;20784;-84
2023/10/31 03:03:42;;;;;;;9.70;8.90;;;11.10;84.00;;;;;;6244126;28;20249;-84
2023/10/31 03:06:47;;;;;;;8.63;7.90;;;11.10;84.20;;;;;;6229312;28;20680;-84
2023/10/31 03:09:52;;;;;;;10.63;9.83;;;11.10;84.10;;;;;;6253712;28;20317;-82
2023/10/31 03:12:55;;;;;;;9.60;8.90;;;11.10;84.60;;;;;;6250029;28;20795;-85
2023/10/31 03:15:58;;;;;;;8.47;7.83;;;11.10;84.70;;;;;;6242830;28;20368;-83
2023/10/31 03:19:01;;;;;;;8.43;7.63;;;11.10;84.50;;;;;;6245255;28;20231;-84
2023/10/31 03:22:06;;;;;;;9.00;8.30;;;11.10;84.50;;;;;;6231038;28;20235;-83
2023/10/31 03:25:10;;;;;;;10.67;9.40;;;11.10;84.40;;;;;;6245565;28;20240;-85
2023/10/31 03:28:22;;;;;;;9.87;8.87;;;11.10;84.80;;;;;;6251299;28;20230;-85
2023/10/31 03:31:26;;;;;;;11.57;10.47;;;11.10;84.80;;;;;;6244653;28;20242;-85
2023/10/31 03:34:29;;;;;;;10.43;9.57;;;11.10;85.10;;;;;;6243369;28;20246;-84
2023/10/31 03:37:33;;;;;;;10.00;9.10;;;11.10;85.40;;;;;;6253472;28;20709;-82
2023/10/31 03:40:38;;;;;;;10.47;9.60;;;11.10;85.20;;;;;;6243278;28;20804;-84
2023/10/31 03:43:41;;;;;;;10.77;9.67;;;11.10;85.30;;;;;;6232843;28;20234;-84
2023/10/31 03:46:45;;;;;;;10.30;9.40;;;11.10;85.50;;;;;;6208267;28;20239;-82
2023/10/31 03:49:48;;;;;;;11.30;9.47;;;11.10;85.40;;;;;;6227339;28;20242;-85
2023/10/31 03:52:51;;;;;;;9.87;8.73;;;11.10;85.60;;;;;;6234450;28;20724;-83
2023/10/31 03:55:56;;;;;;;11.10;9.83;;;11.10;85.50;;;;;;6237629;28;20328;-85
2023/10/31 03:59:00;;;;;;;9.80;8.97;;;11.10;85.70;;;;;;6250772;28;20237;-84
2023/10/31 04:02:03;;;;;;;11.87;9.93;;;11.00;85.90;;;;;;6229280;28;20826;-84
2023/10/31 04:05:07;;;;;;;10.30;9.33;;;11.00;86.10;;;;;;6240507;28;20230;-84
2023/10/31 04:08:11;;;;;;;11.43;10.40;;;11.00;86.10;;;;;;6240630;28;20227;-84
2023/10/31 04:11:16;;;;;;;10.53;9.63;;;11.10;86.00;;;;;;6238927;28;20237;-85
2023/10/31 04:14:19;;;;;;;11.63;10.43;;;11.00;86.00;;;;;;6240935;28;20242;-83
2023/10/31 04:17:23;;;;;;;12.23;10.80;;;11.10;86.10;;;;;;6257847;28;20241;-85
2023/10/31 04:20:26;;;;;;;10.70;9.80;;;11.00;86.50;;;;;;6281908;28;20215;-82
2023/10/31 04:23:29;;;;;;;9.53;8.83;;;11.00;86.60;;;;;;6264181;28;20279;-82
2023/10/31 04:26:35;;;;;;;11.20;9.67;;;11.00;86.50;;;;;;6273866;28;20238;-81
2023/10/31 04:29:39;;;;;;;10.67;9.77;;;11.00;86.70;;;;;;6270086;28;20227;-81
2023/10/31 04:32:42;;;;;;;11.87;10.87;;;11.00;86.70;;;;;;6260912;28;20243;-80
2023/10/31 04:35:45;;;;;;;11.77;10.60;;;11.00;86.60;;;;;;6253339;28;20230;-79
2023/10/31 04:38:51;;;;;;;11.43;10.23;;;11.00;86.70;;;;;;6272042;28;20229;-82
2023/10/31 04:41:56;;;;;;;12.63;11.33;;;11.00;86.70;;;;;;6258595;28;20231;-81
2023/10/31 04:45:00;;;;;;;12.70;11.37;;;11.10;86.70;;;;;;6273747;28;20227;-81
2023/10/31 04:48:04;;;;;;;10.73;9.70;;;11.00;86.70;;;;;;6272449;28;20290;-79
2023/10/31 04:51:07;;;;;;;11.87;10.80;;;11.10;86.80;;;;;;6271155;28;20219;-82
2023/10/31 04:54:10;;;;;;;12.10;10.90;;;11.10;86.80;;;;;;6268572;28;20238;-80
2023/10/31 04:57:15;;;;;;;12.33;11.03;;;11.10;87.00;;;;;;6267498;28;20210;-80
2023/10/31 05:00:19;;;;;;;12.43;11.33;;;11.10;87.00;;;;;;6292077;28;20218;-81
2023/10/31 05:03:22;;;;;;;15.20;11.03;;;11.20;87.10;;;;;;6279689;28;20290;-80
2023/10/31 05:06:25;;;;;;;12.20;10.97;;;11.20;86.90;;;;;;6280487;28;20226;-81
2023/10/31 05:09:28;;;;;;;12.60;11.40;;;11.30;86.90;;;;;;6279296;28;20279;-80
2023/10/31 05:12:33;;;;;;;13.50;12.20;;;11.30;86.80;;;;;;6277057;28;20219;-81
2023/10/31 05:15:36;;;;;;;12.93;11.77;;;11.30;86.90;;;;;;6283198;28;20272;-80
2023/10/31 05:18:40;;;;;;;14.13;12.90;;;11.20;87.10;;;;;;6278706;28;20226;-79
2023/10/31 05:21:43;;;;;;;14.43;12.93;;;11.30;87.20;;;;;;6282417;28;20226;-79
2023/10/31 05:25:00;;;;;;;13.30;12.00;;;11.30;87.20;;;;;;6286979;28;20228;-83
2023/10/31 05:28:04;;;;;;;13.57;12.27;;;11.30;87.30;;;;;;6250432;28;20277;-83
2023/10/31 05:31:07;;;;;;;14.33;12.93;;;11.30;87.30;;;;;;6268714;28;20296;-83
2023/10/31 05:34:10;;;;;;;12.77;11.77;;;11.30;87.30;;;;;;6273116;28;20227;-83
2023/10/31 05:37:14;;;;;;;14.67;13.10;;;11.30;87.50;;;;;;6271043;28;20245;-81
2023/10/31 05:40:17;;;;;;;13.30;12.00;;;11.40;87.50;;;;;;6253114;28;20242;-82
2023/10/31 05:43:22;;;;;;;14.20;12.73;;;11.30;87.60;;;;;;6266237;28;20282;-81
2023/10/31 05:46:26;;;;;;;12.80;11.70;;;11.30;87.90;;;;;;6270870;28;20226;-84
2023/10/31 05:49:53;;;;;;;12.87;11.77;;;11.30;88.00;;;;;;6276669;28;20234;-84
2023/10/31 05:52:57;;;;;;;12.37;11.23;;;11.40;88.00;;;;;;6250266;28;20239;-85
2023/10/31 05:56:00;;;;;;;10.93;10.03;;;11.40;88.10;;;;;;6247081;28;20599;-84
2023/10/31 05:59:05;;;;;;;11.40;10.43;;;11.40;88.00;;;;;;6245824;28;20227;-83
2023/10/31 06:02:10;;;;;;;10.53;9.80;;;11.40;88.00;;;;;;6245191;28;20330;-83
2023/10/31 06:05:13;;;;;;;9.80;9.10;;;11.40;88.10;;;;;;6248913;28;20304;-84
2023/10/31 06:08:16;;;;;;;10.30;9.53;;;11.40;88.30;;;;;;6255293;28;20672;-83
2023/10/31 06:11:20;;;;;;;10.67;9.80;;;11.50;88.20;;;;;;6235340;28;20235;-82
2023/10/31 06:14:25;;;;;;;10.50;9.67;;;11.40;88.20;;;;;;6234976;28;20639;-84
2023/10/31 06:17:30;;;;;;;11.37;10.33;;;11.50;88.30;;;;;;6226683;28;20716;-83
2023/10/31 06:20:34;;;;;;;11.63;10.63;;;11.40;88.40;;;;;;6220008;28;20235;-85
2023/10/31 06:23:38;;;;;;;11.77;10.87;;;11.50;88.50;;;;;;6231366;28;20245;-83
2023/10/31 06:26:41;;;;;;;12.00;11.00;;;11.50;88.50;;;;;;6220612;28;20255;-84
2023/10/31 06:29:46;;;;;;;10.90;10.10;;;11.50;88.70;;;;;;6227268;28;20231;-84
2023/10/31 06:33:08;;;;;;;11.60;10.70;;;11.50;88.80;;;;;;6230152;28;20324;-83
2023/10/31 06:36:12;;;;;;;10.27;9.67;;;11.50;88.70;;;;;;6218764;28;20222;-84
2023/10/31 06:39:15;;;;;;;12.10;10.97;;;11.50;88.70;;;;;;6236549;28;20226;-84
2023/10/31 06:42:18;;;;;;;10.90;10.20;;;11.60;88.70;;;;;;6231507;28;20316;-83
2023/10/31 06:45:23;;;;;;;10.83;10.13;;;11.70;88.70;;;;;;6239664;28;20247;-84
2023/10/31 06:48:26;;;;;;;10.67;9.77;;;11.70;88.50;;;;;;6236557;28;20265;-84
2023/10/31 06:51:29;;;;;;;9.90;9.13;;;11.70;88.40;;;;;;6237931;28;20270;-84
2023/10/31 06:54:34;;;;;;;9.63;9.03;;;11.70;88.50;;;;;;6236814;28;20230;-84
2023/10/31 06:57:37;;;;;;;8.90;8.20;;;11.70;88.50;;;;;;6236767;28;20254;-85
2023/10/31 07:00:42;;;;;;;8.60;8.00;;;11.80;88.60;;;;;;6241734;28;20245;-84
2023/10/31 07:03:45;;;;;;;8.57;8.00;;;11.90;88.50;;;;;;6238077;28;20742;-84
2023/10/31 07:06:52;;;;;;;8.57;7.63;;;11.80;88.40;;;;;;6242227;28;20241;-84
2023/10/31 07:09:57;;;;;;;8.60;7.70;;;11.90;88.40;;;;;;6246309;28;20321;-84
2023/10/31 07:13:00;;;;;;;8.43;7.83;;;11.90;88.30;;;;;;6244233;28;20300;-83
2023/10/31 07:16:06;;;;;;;7.00;6.50;;;11.90;88.30;;;;;;6242123;28;20321;-85
2023/10/31 07:19:10;;;;;;;7.20;6.80;;;12.00;88.30;;;;;;6228547;28;20242;-85
2023/10/31 07:22:13;;;;;;;7.13;6.63;;;12.00;88.10;;;;;;6256581;28;20696;-85
2023/10/31 07:25:17;;;;;;;5.80;5.50;;;12.00;88.20;;;;;;6255031;28;20649;-85
2023/10/31 07:28:22;;;;;;;4.13;3.93;;;12.00;88.00;;;;;;6249063;28;20278;-85
2023/10/31 07:31:28;;;;;;;3.87;3.57;;;11.90;86.10;;;;;;6260785;28;20234;-84
2023/10/31 07:34:32;;;;;;;2.97;2.97;;;11.90;84.20;;;;;;6244141;28;20369;-82
2023/10/31 07:37:35;;;;;;;3.37;3.27;;;11.90;83.50;;;;;;6244388;28;20338;-84
2023/10/31 07:40:39;;;;;;;3.33;3.23;;;11.90;82.80;;;;;;6260107;28;20852;-83
2023/10/31 07:43:42;;;;;;;3.40;3.20;;;11.90;83.00;;;;;;6247835;28;20364;-84
2023/10/31 07:46:47;;;;;;;3.50;3.40;;;11.90;82.90;;;;;;6245393;28;20230;-83
2023/10/31 07:49:53;;;;;;;3.53;3.43;;;11.90;81.90;;;;;;6255529;28;20230;-84
2023/10/31 07:52:56;;;;;;;3.40;3.30;;;11.90;81.50;;;;;;6258829;28;20239;-83
2023/10/31 07:56:00;;;;;;;3.27;3.23;;;11.90;81.50;;;;;;6255665;28;20268;-84
2023/10/31 07:59:03;;;;;;;3.40;3.20;;;11.90;81.30;;;;;;6253942;28;20307;-84
2023/10/31 08:02:08;;;;;;;3.27;3.20;;;11.90;80.40;;;;;;6262315;28;20937;-84
2023/10/31 08:05:12;;;;;;;3.70;3.53;;;11.90;80.40;;;;;;6264785;28;20259;-78
2023/10/31 08:08:15;;;;;;;2.80;2.80;;;11.90;80.20;;;;;;6255569;28;20292;-84
2023/10/31 08:11:18;;;;;;;2.73;2.63;;;11.90;79.00;;;;;;6253843;28;20234;-82
2023/10/31 08:14:22;;;;;;;2.60;2.60;;;11.90;79.30;;;;;;6248326;28;20258;-81
2023/10/31 08:17:29;;;;;;;2.50;2.50;;;11.90;78.00;;;;;;6255719;28;20268;-81
2023/10/31 08:20:33;;;;;;;2.60;2.60;;;11.80;76.90;;;;;;6239720;28;20863;-83
2023/10/31 08:23:37;;;;;;;2.60;2.50;;;11.70;76.90;;;;;;6247423;28;20238;-78
2023/10/31 08:26:41;;;;;;;2.63;2.53;;;11.80;77.10;;;;;;6260642;28;20292;-83
2023/10/31 08:29:44;;;;;;;2.37;2.37;;;11.70;76.50;;;;;;6252713;28;20289;-84
2023/10/31 08:32:51;;;;;;;3.07;2.67;;;11.70;76.10;;;;;;6248829;28;20317;-83
2023/10/31 08:35:55;;;;;;;2.73;2.73;;;11.70;75.60;;;;;;6255030;28;20834;-84
2023/10/31 08:38:58;;;;;;;2.17;2.10;;;11.70;75.60;;;;;;6244144;28;20306;-81
2023/10/31 08:42:01;;;;;;;2.53;2.43;;;11.70;74.90;;;;;;6250955;28;20235;-81
2023/10/31 08:45:05;;;;;;;2.20;2.20;;;11.70;75.10;;;;;;6248211;28;20254;-82
2023/10/31 08:48:10;;;;;;;2.10;2.10;;;11.80;74.10;;;;;;6233646;28;20313;-83
2023/10/31 08:51:27;;;;;;;2.40;2.30;;;11.90;74.60;;;;;;6254589;28;20270;-84
2023/10/31 08:54:30;;;;;;;2.53;2.43;;;12.00;73.60;;;;;;6256970;28;20334;-80
2023/10/31 08:57:34;;;;;;;2.30;2.20;;;12.00;73.60;;;;;;6244969;28;20238;-85
2023/10/31 09:00:37;;;;;;;1.80;1.80;;;12.00;73.90;;;;;;6254656;28;20376;-84
2023/10/31 09:03:42;;;;;;;2.20;2.20;;;12.00;73.20;;;;;;6252416;28;20240;-85
2023/10/31 09:06:45;;;;;;;2.40;2.40;;;12.00;72.70;;;;;;6245177;28;22427;-84
2023/10/31 09:09:48;;;;;;;2.17;2.13;;;12.00;73.20;;;;;;6240654;28;20741;-83
2023/10/31 09:12:51;;;;;;;2.17;2.03;;;11.90;72.30;;;;;;6246354;28;20774;-85
2023/10/31 09:15:55;;;;;;;1.90;1.90;;;11.90;72.20;;;;;;6249205;28;20250;-87
2023/10/31 09:19:00;;;;;;;2.00;2.00;;;11.90;72.40;;;;;;6259704;28;20815;-86
2023/10/31 09:22:03;;;;;;;1.90;1.90;;;11.90;72.20;;;;;;6247176;28;20230;-84
2023/10/31 09:25:07;;;;;;;2.57;2.37;;;12.00;71.20;;;;;;6240717;28;20277;-81
2023/10/31 09:28:11;;;;;;;2.10;2.00;;;12.00;70.90;;;;;;6243314;28;20861;-86
2023/10/31 09:31:14;;;;;;;2.30;2.20;;;12.00;71.00;;;;;;6258999;28;20756;-86
2023/10/31 09:34:18;;;;;;;1.87;1.87;;;12.10;70.10;;;;;;6247037;28;20239;-84
2023/10/31 09:37:21;;;;;;;2.40;2.20;;;12.00;70.40;;;;;;6248636;28;20322;-84
2023/10/31 09:40:25;;;;;;;2.00;2.00;;;12.00;70.70;;;;;;6257791;28;20241;-82
2023/10/31 09:43:28;;;;;;;2.33;2.23;;;12.10;70.70;;;;;;6258073;28;20337;-81
2023/10/31 09:46:31;;;;;;;1.93;1.93;;;12.00;70.50;;;;;;6246860;28;20238;-83
2023/10/31 09:49:36;;;;;;;2.40;2.20;;;12.10;70.50;;;;;;6246653;28;20285;-80
2023/10/31 09:52:40;;;;;;;2.60;2.60;;;12.10;70.30;;;;;;6249772;28;20238;-84
2023/10/31 09:55:44;;;;;;;2.60;2.60;;;12.20;70.50;;;;;;6241304;28;20857;-84
2023/10/31 09:58:48;;;;;;;2.30;2.30;;;12.10;70.60;;;;;;6247823;28;20238;-84
2023/10/31 10:01:52;;;;;;;2.60;2.50;;;12.10;70.30;;;;;;6255793;28;20230;-84
2023/10/31 10:04:56;;;;;;;2.30;2.20;;;12.20;70.70;;;;;;6248134;28;20259;-83
2023/10/31 10:07:59;;;;;;;2.47;2.33;;;12.30;70.20;;;;;;6247908;28;20243;-83
2023/10/31 10:11:03;;;;;;;2.93;2.50;;;12.20;70.00;;;;;;6246960;28;20246;-85
2023/10/31 10:14:09;;;;;;;2.40;2.30;;;12.20;70.00;;;;;;6261117;28;20238;-84
2023/10/31 10:17:17;;;;;;;2.70;2.50;;;12.20;70.10;;;;;;6255129;28;20614;-84
2023/10/31 10:20:22;;;;;;;3.10;3.10;;;12.30;70.10;;;;;;6240952;28;20245;-84
2023/10/31 10:23:26;;;;;;;3.13;2.80;;;12.30;70.20;;;;;;6255982;28;20257;-82
2023/10/31 10:26:29;;;;;;;2.50;2.40;;;12.50;69.90;;;;;;6249978;28;20245;-84
2023/10/31 10:29:33;;;;;;;2.57;2.43;;;12.50;69.60;;;;;;6249105;28;20866;-82
2023/10/31 10:32:36;;;;;;;2.50;2.50;;;12.50;69.10;;;;;;6254381;28;20238;-83
2023/10/31 10:35:41;;;;;;;2.63;2.63;;;12.50;69.80;;;;;;6250033;28;20242;-84
2023/10/31 10:38:47;;;;;;;2.40;2.40;;;12.50;69.20;;;;;;6238108;28;20277;-81
2023/10/31 10:41:55;;;;;;;2.73;2.63;;;12.50;69.60;;;;;;6246243;28;20697;-83
2023/10/31 10:45:03;;;;;;;4.13;3.03;;;12.70;68.60;;;;;;6248591;28;20247;-83
2023/10/31 10:48:12;;;;;;;4.47;2.80;;;12.70;68.10;;;;;;6225503;28;20719;-82
2023/10/31 10:51:26;;;;;;;2.60;2.60;;;12.70;68.10;;;;;;6245406;28;20259;-84
2023/10/31 10:54:35;;;;;;;2.90;2.70;;;12.80;68.20;;;;;;6232317;28;20261;-84
2023/10/31 10:57:41;;;;;;;2.60;2.60;;;12.70;68.30;;;;;;6247538;28;20312;-82
2023/10/31 11:00:45;;;;;;;2.77;2.77;;;12.80;68.30;;;;;;6250310;28;20233;-83
2023/10/31 11:03:53;;;;;;;2.90;2.80;;;13.00;67.80;;;;;;6244042;28;20447;-83
2023/10/31 11:06:59;;;;;;;3.20;3.10;;;12.90;68.20;;;;;;6252509;28;20233;-85
2023/10/31 11:10:05;;;;;;;2.73;2.73;;;12.90;67.80;;;;;;6240277;28;20242;-83
2023/10/31 11:13:08;;;;;;;3.23;3.13;;;12.90;67.70;;;;;;6247560;28;20315;-83
2023/10/31 11:16:18;;;;;;;3.30;3.10;;;12.90;67.30;;;;;;6256601;28;20242;-85
2023/10/31 11:19:25;;;;;;;3.30;3.20;;;12.90;67.70;;;;;;6250287;28;20324;-83
2023/10/31 11:22:40;;;;;;;3.60;3.50;;;12.90;67.80;;;;;;6247348;28;20227;-85
2023/10/31 11:25:44;;;;;;;3.20;3.10;;;12.90;67.70;;;;;;6244945;28;20726;-84
2023/10/31 11:28:47;;;;;;;3.47;3.17;;;12.90;68.00;;;;;;6252892;28;20740;-81
2023/10/31 11:31:51;;;;;;;3.30;3.10;;;12.90;67.80;;;;;;6261592;28;20229;-83
2023/10/31 11:34:55;;;;;;;3.17;3.03;;;12.80;68.00;;;;;;6247536;28;20286;-83
2023/10/31 11:38:15;;;;;;;3.00;3.00;;;12.80;67.90;;;;;;6250755;28;20245;-84
2023/10/31 11:41:18;;;;;;;3.13;3.07;;;12.80;67.90;;;;;;6254793;28;20235;-81
2023/10/31 11:44:24;;;;;;;3.50;3.50;;;12.80;68.30;;;;;;6249796;28;20294;-82
2023/10/31 11:47:27;;;;;;;3.33;3.23;;;12.80;68.00;;;;;;6243260;28;20246;-82
2023/10/31 11:50:31;;;;;;;3.07;3.00;;;12.70;68.20;;;;;;6256076;28;20250;-82
2023/10/31 11:53:40;;;;;;;4.37;2.87;;;12.80;68.40;;;;;;6248255;28;20234;-79
2023/10/31 11:56:51;;;;;;;2.77;2.67;;;12.70;68.40;;;;;;6272981;28;20246;-84
2023/10/31 11:59:54;;;;;;;4.50;4.20;;;12.80;68.80;;;;;;6253655;28;20237;-83
2023/10/31 12:02:59;;;;;;;2.87;2.77;;;13.20;68.10;;;;;;6255234;28;20257;-82
2023/10/31 12:06:04;;;;;;;2.67;2.67;;;13.50;66.60;;;;;;6235982;28;20231;-84
2023/10/31 12:09:09;;;;;;;2.63;2.60;;;13.30;66.80;;;;;;6232819;28;20859;-83
2023/10/31 12:12:12;;;;;;;2.87;2.40;;;13.10;67.00;;;;;;6226797;28;20243;-86
2023/10/31 12:15:15;;;;;;;2.13;2.13;;;13.10;66.20;;;;;;6243701;28;20246;-82
2023/10/31 12:18:19;;;;;;;2.20;2.20;;;13.10;66.00;;;;;;6266022;28;20239;-85
2023/10/31 12:21:36;;;;;;;2.67;2.50;;;12.90;66.20;;;;;;6237852;28;20290;-85
2023/10/31 12:24:40;;;;;;;2.23;2.23;;;12.80;66.30;;;;;;6231933;28;20819;-82
2023/10/31 12:27:45;;;;;;;2.40;2.20;;;12.70;66.90;;;;;;6241952;28;20239;-85
2023/10/31 12:30:50;;;;;;;2.37;2.37;;;12.70;66.90;;;;;;6235079;28;20235;-82
2023/10/31 12:33:54;;;;;;;2.20;2.20;;;12.80;67.00;;;;;;6238939;28;20705;-86
2023/10/31 12:37:01;;;;;;;2.40;2.30;;;12.80;67.00;;;;;;6243393;28;20235;-82
2023/10/31 12:40:09;;;;;;;2.63;2.43;;;12.80;66.50;;;;;;6237447;28;20741;-84
2023/10/31 12:43:12;;;;;;;1.90;1.90;;;12.80;66.20;;;;;;6238872;28;20230;-81
2023/10/31 12:46:35;;;;;;;2.10;2.10;;;12.70;66.10;;;;;;6240915;28;20245;-81
2023/10/31 12:49:38;;;;;;;2.00;2.00;;;12.80;66.20;;;;;;6235657;28;20730;-84
2023/10/31 12:52:48;;;;;;;2.00;1.90;;;12.70;65.90;;;;;;6241127;28;20230;-84
2023/10/31 12:55:56;;;;;;;1.90;1.90;;;12.70;66.40;;;;;;6243889;28;20235;-81
2023/10/31 12:59:00;;;;;;;2.03;1.97;;;12.70;66.20;;;;;;6235712;28;20242;-82
2023/10/31 13:02:03;;;;;;;1.90;1.90;;;12.70;66.10;;;;;;6249842;28;20252;-84
2023/10/31 13:05:13;;;;;;;1.90;1.90;;;12.70;66.10;;;;;;6238983;28;20234;-85
2023/10/31 13:08:16;;;;;;;2.03;1.80;;;12.70;66.60;;;;;;6244064;28;20740;-84
2023/10/31 13:11:25;;;;;;;1.80;1.80;;;12.70;66.60;;;;;;6221438;28;20854;-83
2023/10/31 13:14:28;;;;;;;2.07;2.07;;;12.60;66.40;;;;;;6233585;28;20239;-81
2023/10/31 13:17:32;;;;;;;2.00;2.00;;;12.50;66.80;;;;;;6234030;28;20297;-84
2023/10/31 13:20:36;;;;;;;2.10;2.10;;;12.50;66.80;;;;;;6222191;28;20242;-83
2023/10/31 13:23:39;;;;;;;2.07;1.97;;;12.50;66.50;;;;;;6229677;28;20458;-84
2023/10/31 13:26:44;;;;;;;1.90;1.90;;;12.50;66.60;;;;;;6231313;28;20840;-82
2023/10/31 13:29:49;;;;;;;2.37;2.30;;;12.50;67.20;;;;;;6231240;28;20243;-82
2023/10/31 13:32:52;;;;;;;2.07;2.07;;;12.50;67.10;;;;;;6245366;28;20718;-82
2023/10/31 13:35:56;;;;;;;1.70;1.70;;;12.50;67.60;;;;;;6237098;28;20258;-81
2023/10/31 13:38:59;;;;;;;1.93;1.90;;;12.50;67.60;;;;;;6235226;28;20235;-82
2023/10/31 13:42:04;;;;;;;2.00;2.00;;;12.50;67.80;;;;;;6262888;28;20310;-84
2023/10/31 13:45:08;;;;;;;1.87;1.87;;;12.50;68.00;;;;;;6247443;28;20239;-83
2023/10/31 13:48:14;;;;;;;1.90;1.90;;;12.40;68.20;;;;;;6243630;28;20274;-82
2023/10/31 13:51:19;;;;;;;1.93;1.77;;;12.30;68.90;;;;;;6241838;28;20272;-81
2023/10/31 13:54:24;;;;;;;1.80;1.80;;;12.30;69.10;;;;;;6227284;28;20246;-84
2023/10/31 13:57:28;;;;;;;2.43;1.77;;;12.20;69.90;;;;;;6238706;28;20844;-83
2023/10/31 14:00:32;;;;;;;1.80;1.80;;;12.10;70.20;;;;;;6238929;28;20284;-83
2023/10/31 14:03:35;;;;;;;2.07;1.97;;;11.90;71.00;;;;;;6238783;28;20239;-82
2023/10/31 14:06:39;;;;;;;1.93;1.93;;;11.90;71.40;;;;;;6241348;28;20242;-86
2023/10/31 14:09:43;;;;;;;1.80;1.80;;;11.80;71.70;;;;;;6220500;28;20263;-81
2023/10/31 14:12:48;;;;;;;1.77;1.77;;;11.90;71.90;;;;;;6231076;28;20765;-83
2023/10/31 14:15:52;;;;;;;2.00;2.00;;;11.70;72.10;;;;;;6234257;28;20334;-83
2023/10/31 14:18:55;;;;;;;1.80;1.80;;;11.70;72.60;;;;;;6231688;28;20244;-83
2023/10/31 14:21:58;;;;;;;2.17;2.07;;;11.70;72.80;;;;;;6248224;28;20245;-84
2023/10/31 14:25:04;;;;;;;1.80;1.80;;;11.60;73.50;;;;;;6259271;28;20368;-81
2023/10/31 14:28:08;;;;;;;4.60;4.30;;;11.50;74.30;;;;;;6251701;28;20233;-82
2023/10/31 14:31:12;;;;;;;1.93;1.93;;;11.30;75.30;;;;;;6253984;28;20238;-81
2023/10/31 14:34:15;;;;;;;3.10;2.93;;;11.30;76.50;;;;;;6239930;28;20342;-84
2023/10/31 14:37:18;;;;;;;2.30;2.17;;;11.20;77.30;;;;;;6248066;28;20241;-84
2023/10/31 14:40:21;;;;;;;2.10;2.10;;;11.10;78.40;;;;;;6249406;28;20267;-83
2023/10/31 14:43:26;;;;;;;2.13;2.13;;;11.00;79.40;;;;;;6254378;28;20246;-80
2023/10/31 14:46:29;;;;;;;2.27;2.27;;;10.90;80.00;;;;;;6254346;28;20250;-83
2023/10/31 14:49:33;;;;;;;2.53;2.27;;;10.80;80.40;;;;;;6234147;28;20243;-83
2023/10/31 14:52:37;;;;;;;2.10;2.10;;;10.80;80.80;;;;;;6260268;28;20242;-84
2023/10/31 14:55:40;;;;;;;2.73;2.53;;;10.70;80.80;;;;;;6243784;28;20242;-83
2023/10/31 14:58:45;;;;;;;2.37;2.30;;;10.70;81.20;;;;;;6244052;28;20248;-81
2023/10/31 15:01:51;;;;;;;2.40;2.30;;;10.70;81.60;;;;;;6253335;28;20772;-84
2023/10/31 15:05:04;;;;;;;;;;;;;;;;;;;;;
2023/10/31 15:08:09;;;;;;;2.47;2.47;;;10.70;81.80;;;;;;6244414;28;20235;-84
2023/10/31 15:11:12;;;;;;;2.67;2.60;;;10.60;81.70;;;;;;6245823;28;20249;-84
2023/10/31 15:14:17;;;;;;;2.30;2.30;;;10.60;81.60;;;;;;6248000;28;20269;-82
2023/10/31 15:17:20;;;;;;;2.30;2.30;;;10.60;81.70;;;;;;6251675;28;20768;-82
2023/10/31 15:20:23;;;;;;;2.23;2.13;;;10.60;81.60;;;;;;6255953;28;20234;-82
2023/10/31 15:23:27;;;;;;;2.30;2.30;;;10.50;81.80;;;;;;6259689;28;20241;-81
2023/10/31 15:26:30;;;;;;;2.20;2.20;;;10.60;81.70;;;;;;6252366;28;20320;-83
2023/10/31 15:29:35;;;;;;;2.37;2.37;;;10.50;81.90;;;;;;6266685;28;20372;-83
2023/10/31 15:32:40;;;;;;;2.57;2.53;;;10.50;82.30;;;;;;6252411;28;20242;-81
2023/10/31 15:35:44;;;;;;;2.37;2.33;;;10.50;82.40;;;;;;6246917;28;20738;-83
2023/10/31 15:38:47;;;;;;;2.37;2.37;;;10.40;82.70;;;;;;6256199;28;20237;-82
2023/10/31 15:41:51;;;;;;;2.40;2.40;;;10.50;82.70;;;;;;6254451;28;20238;-84
2023/10/31 15:44:58;;;;;;;2.70;2.60;;;10.60;82.50;;;;;;6241543;28;20360;-84
2023/10/31 15:48:01;;;;;;;2.60;2.50;;;10.60;82.30;;;;;;6255781;28;20330;-84
2023/10/31 15:51:05;;;;;;;2.60;2.60;;;10.50;82.50;;;;;;6253669;28;20237;-83
2023/10/31 15:54:08;;;;;;;3.07;2.90;;;10.40;83.20;;;;;;6238593;28;20517;-84
2023/10/31 15:57:11;;;;;;;2.60;2.60;;;10.40;83.40;;;;;;6249306;28;20238;-84
2023/10/31 16:00:16;;;;;;;2.53;2.43;;;10.30;83.70;;;;;;6264750;28;20241;-83